This is the latest recevied weather packets stored in our database for station/object KC8QDR-1. If no packets are shown the sender has not sent any weather packets the latest 10 day(s).
| Time | Temp. | Humidity | Pressure | Rain* | Wind** | Luminosity | Snow |
|---|---|---|---|---|---|---|---|
| 1777250328 | 13.89° C | 76% | 1030.3 hPa | 0 mm | 0 m/s | - | - |
| 1777249724 | 13.89° C | 75% | 1030.3 hPa | 0 mm | 0 m/s | - | - |
| 1777249124 | 14.44° C | 74% | 1030.4 hPa | 0 mm | 0 m/s | - | - |
| 1777248528 | 14.44° C | 74% | 1030.3 hPa | 0 mm | 0 m/s | - | - |
| 1777247928 | 15° C | 71% | 1030.3 hPa | 0 mm | 0 m/s | - | - |
| 1777247324 | 16.11° C | 67% | 1030.2 hPa | 0 mm | 0 m/s | - | - |
| 1777246724 | 16.67° C | 60% | 1030.1 hPa | 0 mm | 0 m/s | - | - |
| 1777246124 | 16.67° C | 60% | 1030 hPa | 0 mm | 0 m/s | - | - |
| 1777245524 | 16.67° C | 59% | 1029.9 hPa | 0 mm | 0 m/s | - | - |
| 1777244924 | 17.22° C | 59% | 1029.9 hPa | 0 mm | 0 m/s | - | - |
| 1777244324 | 17.22° C | 58% | 1029.8 hPa | 0 mm | 0 m/s | - | - |
| 1777243724 | 16.67° C | 59% | 1029.8 hPa | 0 mm | 0 m/s | - | - |
| 1777243125 | 16.67° C | 58% | 1029.8 hPa | 0 mm | 0 m/s | - | - |
| 1777241925 | 17.22° C | 60% | 1029.6 hPa | 0 mm | 0 m/s | - | - |
| 1777241324 | 17.22° C | 61% | 1029.5 hPa | 0 mm | 0 m/s | - | - |
| 1777240724 | 17.22° C | 59% | 1029.3 hPa | 0 mm | 0 m/s | - | - |
| 1777240124 | 17.22° C | 60% | 1029.2 hPa | 0 mm | 0 m/s | - | - |
| 1777239526 | 17.22° C | 59% | 1029.1 hPa | 0 mm | 0 m/s | - | - |
| 1777238924 | 16.67° C | 59% | 1029 hPa | 0 mm | 0 m/s | - | - |
| 1777238324 | 16.67° C | 60% | 1028.9 hPa | 0 mm | 0 m/s | - | - |
| 1777237724 | 16.67° C | 59% | 1028.9 hPa | 0 mm | 0 m/s | - | - |
| 1777237124 | 16.67° C | 62% | 1028.7 hPa | 0 mm | 0 m/s | - | - |
| 1777236524 | 16.67° C | 62% | 1028.6 hPa | 0 mm | 0 m/s | - | - |
| 1777235924 | 17.22° C | 60% | 1028.6 hPa | 0 mm | 0 m/s | - | - |
| 1777235324 | 17.22° C | 62% | 1028.6 hPa | 0 mm | 0 m/s | - | - |
* Rain latest hour (hover to see other rain measurements)
** Current wind speed in m/s (hover to see current wind gust speed)